Terminal Aerodrome Forecast
Issued by NWS

Home | Current Version | Previous Version | Text Only | Print | Product List | Glossary On
Versions: 1 2 3 4 5 6 7 8 9 10 11 12 13 14 15
000
FTUS45 KCYS 172320
TAFRWL
TAF
KRWL 172320Z 1800/1824 28015G25KT P6SM SCT100
     FM180200 29007KT P6SM SKC
     FM181500 26012G23KT P6SM SCT100=

USA.gov is the U.S. government's official web portal to all federal, state and local government web resources and services.